Time;durP1;ratioP1;P1;durP2;ratioP2;P2;SDS_P1;SDS_P2;PMS_P1;PMS_P2;Temp;Humidity;BMP_temperature;BMP_pressure;BME280_temperature;BME280_humidity;BME280_pressure;Samples;Min_cycle;Max_cycle;Signal;HPM_P1;HPM_P2
2022/07/03 00:01:38;;;;;;;2.50;2.38;;;;;;;;;;5026512;28;20094;-81
2022/07/03 00:04:05;;;;;;;2.85;2.65;;;;;;;;;;5038707;28;20467;-81
2022/07/03 00:06:33;;;;;;;2.35;2.25;;;;;;;;;;5041514;28;20451;-82
2022/07/03 00:09:01;;;;;;;2.47;2.30;;;;;;;;;;5025303;28;20419;-81
2022/07/03 00:11:29;;;;;;;2.58;2.47;;;;;;;;;;5060136;28;20131;-81
2022/07/03 00:13:56;;;;;;;2.53;2.42;;;;;;;;;;5041923;28;20036;-81
2022/07/03 00:16:24;;;;;;;2.80;2.50;;;;;;;;;;5024762;28;20507;-81
2022/07/03 00:18:52;;;;;;;3.63;2.70;;;;;;;;;;5092574;22;20057;-77
2022/07/03 00:21:30;;;;;;;2.13;1.98;;;;;;;;;;5027443;28;20041;-78
2022/07/03 00:24:08;;;;;;;2.55;2.45;;;;;;;;;;5049410;28;20838;-78
2022/07/03 00:26:38;;;;;;;3.45;2.40;;;;;;;;;;5025633;28;20505;-78
2022/07/03 00:29:09;;;;;;;3.60;2.40;;;;;;;;;;5032903;28;20090;-78
2022/07/03 00:31:37;;;;;;;2.53;2.17;;;;;;;;;;5022362;28;20548;-78
2022/07/03 00:34:08;;;;;;;3.80;2.30;;;;;;;;;;5050183;28;20059;-78
2022/07/03 00:36:37;;;;;;;2.72;2.53;;;;;;;;;;5020196;28;20073;-78
2022/07/03 00:39:04;;;;;;;2.75;2.50;;;;;;;;;;5046303;28;20535;-78
2022/07/03 00:41:35;;;;;;;2.92;2.72;;;;;;;;;;5052454;28;20040;-77
2022/07/03 00:44:03;;;;;;;2.70;2.50;;;;;;;;;;5050130;28;20040;-78
2022/07/03 00:46:30;;;;;;;2.33;2.22;;;;;;;;;;5035117;28;20034;-78
2022/07/03 00:48:59;;;;;;;2.50;2.30;;;;;;;;;;5047442;28;20550;-78
2022/07/03 00:51:29;;;;;;;2.13;2.03;;;;;;;;;;5053210;28;20590;-78
2022/07/03 00:53:58;;;;;;;5.17;2.40;;;;;;;;;;5052104;28;20041;-78
2022/07/03 00:56:26;;;;;;;2.42;2.20;;;;;;;;;;5049009;28;20331;-78
2022/07/03 00:58:58;;;;;;;2.45;2.35;;;;;;;;;;5036302;28;20051;-78
2022/07/03 01:01:27;;;;;;;2.83;2.55;;;;;;;;;;5053069;28;20465;-78
2022/07/03 01:04:00;;;;;;;1.83;1.80;;;;;;;;;;5054824;28;20496;-78
2022/07/03 01:06:33;;;;;;;2.97;2.20;;;;;;;;;;5032196;28;20369;-79
2022/07/03 01:09:03;;;;;;;2.67;2.47;;;;;;;;;;5031287;28;20044;-79
2022/07/03 01:11:54;;;;;;;2.88;2.67;;;;;;;;;;5039679;28;20136;-79
2022/07/03 01:14:33;;;;;;;2.58;2.15;;;;;;;;;;5057441;28;20055;-79
2022/07/03 01:17:05;;;;;;;2.22;2.13;;;;;;;;;;5040774;28;20518;-78
2022/07/03 01:19:37;;;;;;;2.72;2.53;;;;;;;;;;5057251;28;20068;-79
2022/07/03 01:22:04;;;;;;;;;;;;;;;;;;5042482;28;20037;-78
2022/07/03 01:24:44;;;;;;;2.30;2.20;;;;;;;;;;5029367;28;20344;-79
2022/07/03 01:27:14;;;;;;;4.45;2.42;;;;;;;;;;5046300;28;20517;-79
2022/07/03 01:29:52;;;;;;;2.30;2.20;;;;;;;;;;5042105;28;20513;-78
2022/07/03 01:32:23;;;;;;;2.40;2.30;;;;;;;;;;5038723;28;20075;-80
2022/07/03 01:34:53;;;;;;;2.72;2.58;;;;;;;;;;5058964;28;20045;-78
2022/07/03 01:37:22;;;;;;;3.03;2.47;;;;;;;;;;5038319;28;20093;-78
2022/07/03 01:39:52;;;;;;;2.72;2.53;;;;;;;;;;5060374;22;20407;-78
2022/07/03 01:42:24;;;;;;;2.55;2.45;;;;;;;;;;5037050;28;20038;-79
2022/07/03 01:44:53;;;;;;;3.00;2.78;;;;;;;;;;5035607;28;20072;-79
2022/07/03 01:47:22;;;;;;;3.05;2.70;;;;;;;;;;5038760;28;20562;-78
2022/07/03 01:49:58;;;;;;;2.58;2.38;;;;;;;;;;5019397;28;20509;-79
2022/07/03 01:52:25;;;;;;;2.53;2.42;;;;;;;;;;5038804;28;20143;-79
2022/07/03 01:55:12;;;;;;;2.70;2.50;;;;;;;;;;5038024;28;20049;-80
2022/07/03 01:57:44;;;;;;;2.80;2.60;;;;;;;;;;5034223;28;20113;-78
2022/07/03 02:00:12;;;;;;;3.08;2.30;;;;;;;;;;5021253;28;20072;-79
2022/07/03 02:02:59;;;;;;;2.65;2.50;;;;;;;;;;5036444;28;20037;-79
2022/07/03 02:05:32;;;;;;;2.88;2.55;;;;;;;;;;5020932;28;20138;-80
2022/07/03 02:08:19;;;;;;;2.55;2.40;;;;;;;;;;5034778;28;20037;-80
2022/07/03 02:10:52;;;;;;;2.90;2.70;;;;;;;;;;5022415;28;20123;-80
2022/07/03 02:13:22;;;;;;;2.80;2.60;;;;;;;;;;5049294;28;20048;-80
2022/07/03 02:15:51;;;;;;;5.00;3.00;;;;;;;;;;5035553;28;20049;-78
2022/07/03 02:18:19;;;;;;;4.05;2.88;;;;;;;;;;5031009;28;20144;-78
2022/07/03 02:20:52;;;;;;;3.00;2.80;;;;;;;;;;5049902;28;20128;-78
2022/07/03 02:23:20;;;;;;;3.22;2.65;;;;;;;;;;5049090;28;20494;-78
2022/07/03 02:25:50;;;;;;;2.85;2.30;;;;;;;;;;5050380;28;20165;-80
2022/07/03 02:28:30;;;;;;;4.57;2.92;;;;;;;;;;5052362;28;20497;-80
2022/07/03 02:30:59;;;;;;;3.17;2.97;;;;;;;;;;5053146;28;20045;-79
2022/07/03 02:33:29;;;;;;;2.80;2.70;;;;;;;;;;5034957;28;20037;-79
2022/07/03 02:35:57;;;;;;;4.88;2.97;;;;;;;;;;5044813;28;20127;-78
2022/07/03 02:38:26;;;;;;;2.97;2.78;;;;;;;;;;5047477;28;20044;-78
2022/07/03 02:41:12;;;;;;;3.65;2.78;;;;;;;;;;5055964;28;20378;-78
2022/07/03 02:43:47;;;;;;;4.80;2.90;;;;;;;;;;5020554;28;20092;-78
2022/07/03 02:49:07;;;;;;;;;;;;;;;;;;5016280;28;20044;-79
2022/07/03 02:51:37;;;;;;;2.70;2.30;;;;;;;;;;5020387;28;20384;-78
2022/07/03 02:54:15;;;;;;;5.90;2.58;;;;;;;;;;5004886;28;20083;-79
2022/07/03 02:56:52;;;;;;;4.32;2.50;;;;;;;;;;5031641;28;20055;-80
2022/07/03 02:59:39;;;;;;;3.50;2.47;;;;;;;;;;5035180;28;20691;-78
2022/07/03 03:02:13;;;;;;;6.10;2.50;;;;;;;;;;5002804;28;20044;-79
2022/07/03 03:04:45;;;;;;;4.68;2.53;;;;;;;;;;4986255;28;20748;-78
2022/07/03 03:07:18;;;;;;;2.65;2.55;;;;;;;;;;5033215;28;20062;-78
2022/07/03 03:09:57;;;;;;;2.90;2.67;;;;;;;;;;5033700;28;20401;-78
2022/07/03 03:12:36;;;;;;;2.40;2.30;;;;;;;;;;5035851;28;20499;-79
2022/07/03 03:15:05;;;;;;;3.50;2.67;;;;;;;;;;5019366;28;20049;-79
2022/07/03 03:17:50;;;;;;;2.90;2.72;;;;;;;;;;5016528;28;20049;-79
2022/07/03 03:20:23;;;;;;;2.95;2.75;;;;;;;;;;5038098;28;20206;-78
2022/07/03 03:23:00;;;;;;;2.72;2.45;;;;;;;;;;5048068;28;20045;-80
2022/07/03 03:25:27;;;;;;;4.32;2.72;;;;;;;;;;5032772;28;20106;-78
2022/07/03 03:27:59;;;;;;;2.88;2.67;;;;;;;;;;5050170;28;20083;-78
2022/07/03 03:30:26;;;;;;;3.25;2.67;;;;;;;;;;5053503;28;20130;-79
2022/07/03 03:32:54;;;;;;;2.83;2.58;;;;;;;;;;5050643;28;20041;-80
2022/07/03 03:35:21;;;;;;;5.88;2.78;;;;;;;;;;5048053;28;20101;-78
2022/07/03 03:37:49;;;;;;;2.97;2.75;;;;;;;;;;5021222;28;20172;-78
2022/07/03 03:40:17;;;;;;;4.13;2.35;;;;;;;;;;5045019;28;20045;-79
2022/07/03 03:42:45;;;;;;;6.10;2.80;;;;;;;;;;5057664;28;20086;-78
2022/07/03 03:45:12;;;;;;;3.05;2.40;;;;;;;;;;5055815;28;20588;-79
2022/07/03 03:47:40;;;;;;;3.72;2.75;;;;;;;;;;5053170;28;20531;-78
2022/07/03 03:50:07;;;;;;;2.67;2.47;;;;;;;;;;5054730;28;20034;-78
2022/07/03 03:52:36;;;;;;;3.10;2.80;;;;;;;;;;5038437;28;20128;-78
2022/07/03 03:55:03;;;;;;;2.60;2.40;;;;;;;;;;5045868;28;20139;-80
2022/07/03 03:57:31;;;;;;;3.10;2.78;;;;;;;;;;5054204;28;20504;-78
2022/07/03 03:59:58;;;;;;;5.88;3.00;;;;;;;;;;5053877;28;20578;-79
2022/07/03 04:02:25;;;;;;;3.13;2.92;;;;;;;;;;5053515;28;20049;-79
2022/07/03 04:04:53;;;;;;;3.00;2.75;;;;;;;;;;5051499;28;20126;-78
2022/07/03 04:07:20;;;;;;;3.17;2.70;;;;;;;;;;5027311;28;20543;-78
2022/07/03 04:09:48;;;;;;;4.30;2.72;;;;;;;;;;5036238;28;20403;-78
2022/07/03 04:12:15;;;;;;;3.60;3.28;;;;;;;;;;5037046;28;20048;-78
2022/07/03 04:14:43;;;;;;;3.20;3.00;;;;;;;;;;5057962;28;20102;-80
2022/07/03 04:17:10;;;;;;;3.10;2.90;;;;;;;;;;5030974;28;20500;-78
2022/07/03 04:19:38;;;;;;;3.42;3.22;;;;;;;;;;5046580;28;20588;-78
2022/07/03 04:22:08;;;;;;;4.03;2.95;;;;;;;;;;5045574;28;20055;-79
2022/07/03 04:24:36;;;;;;;3.50;3.22;;;;;;;;;;5060702;28;20217;-79
2022/07/03 04:27:04;;;;;;;3.15;2.95;;;;;;;;;;5046800;28;20124;-80
2022/07/03 04:29:31;;;;;;;3.03;2.88;;;;;;;;;;5039087;28;20400;-78
2022/07/03 04:31:59;;;;;;;3.05;2.85;;;;;;;;;;5056504;28;20075;-78
2022/07/03 04:34:26;;;;;;;4.00;3.25;;;;;;;;;;5046543;28;20132;-81
2022/07/03 04:36:54;;;;;;;3.70;3.10;;;;;;;;;;5027247;28;20441;-78
2022/07/03 04:39:21;;;;;;;4.40;3.58;;;;;;;;;;5048569;28;20082;-78
2022/07/03 04:41:49;;;;;;;4.90;3.47;;;;;;;;;;5052224;28;20037;-79
2022/07/03 04:44:16;;;;;;;4.72;3.28;;;;;;;;;;5050402;28;20139;-80
2022/07/03 04:46:44;;;;;;;2.63;2.53;;;;;;;;;;5042583;28;20411;-78
2022/07/03 04:49:11;;;;;;;4.25;3.25;;;;;;;;;;5032007;28;20501;-78
2022/07/03 04:51:38;;;;;;;4.30;3.25;;;;;;;;;;5047986;28;20512;-80
2022/07/03 04:54:06;;;;;;;5.18;3.08;;;;;;;;;;5044924;28;20377;-78
2022/07/03 04:56:33;;;;;;;3.30;3.10;;;;;;;;;;5043172;28;20580;-78
2022/07/03 04:59:01;;;;;;;3.60;3.30;;;;;;;;;;5053030;28;20041;-77
2022/07/03 05:01:28;;;;;;;3.97;3.30;;;;;;;;;;5033663;28;20408;-78
2022/07/03 05:03:56;;;;;;;3.22;2.85;;;;;;;;;;5051567;28;20037;-78
2022/07/03 05:06:23;;;;;;;3.30;3.00;;;;;;;;;;5031003;28;20043;-78
2022/07/03 05:08:50;;;;;;;7.40;3.20;;;;;;;;;;5028448;28;20072;-78
2022/07/03 05:11:18;;;;;;;4.90;3.22;;;;;;;;;;5052296;28;20147;-80
2022/07/03 05:13:45;;;;;;;3.60;3.40;;;;;;;;;;5056538;28;20036;-78
2022/07/03 05:16:13;;;;;;;3.75;3.33;;;;;;;;;;5032127;28;20135;-78
2022/07/03 05:18:40;;;;;;;3.00;2.80;;;;;;;;;;5029741;28;20130;-78
2022/07/03 05:21:07;;;;;;;3.15;2.65;;;;;;;;;;5039303;28;20050;-78
2022/07/03 05:23:35;;;;;;;3.30;3.00;;;;;;;;;;5028391;28;20076;-79
2022/07/03 05:26:02;;;;;;;2.70;2.50;;;;;;;;;;5053513;28;20128;-79
2022/07/03 05:28:30;;;;;;;6.80;2.80;;;;;;;;;;5052352;28;20105;-79
2022/07/03 05:30:57;;;;;;;2.78;2.58;;;;;;;;;;5054989;28;20037;-81
2022/07/03 05:33:24;;;;;;;3.05;2.80;;;;;;;;;;5048781;28;20142;-79
2022/07/03 05:35:54;;;;;;;3.20;3.00;;;;;;;;;;5020108;28;20045;-79
2022/07/03 05:41:08;;;;;;;2.90;2.53;;;;;;;;;;5042366;28;20504;-79
2022/07/03 05:43:36;;;;;;;4.72;2.47;;;;;;;;;;5042185;28;20040;-80
2022/07/03 05:46:04;;;;;;;4.53;3.10;;;;;;;;;;5048189;28;20524;-81
2022/07/03 05:48:32;;;;;;;2.90;2.45;;;;;;;;;;5046273;28;20129;-81
2022/07/03 05:50:59;;;;;;;3.20;2.90;;;;;;;;;;5026335;28;20045;-79
2022/07/03 05:53:27;;;;;;;3.05;2.88;;;;;;;;;;5048320;28;20045;-80
2022/07/03 05:55:54;;;;;;;4.05;2.92;;;;;;;;;;5049033;28;20126;-81
2022/07/03 05:58:22;;;;;;;4.70;2.90;;;;;;;;;;5018614;28;20044;-79
2022/07/03 06:00:49;;;;;;;2.92;2.72;;;;;;;;;;5021380;28;20451;-78
2022/07/03 06:03:17;;;;;;;2.90;2.72;;;;;;;;;;5043876;28;20349;-80
2022/07/03 06:05:44;;;;;;;3.28;2.97;;;;;;;;;;5036533;28;20083;-79
2022/07/03 06:08:12;;;;;;;3.67;2.70;;;;;;;;;;5048496;28;20405;-79
2022/07/03 06:10:39;;;;;;;3.10;2.80;;;;;;;;;;5044107;28;20259;-81
2022/07/03 06:13:08;;;;;;;2.97;2.78;;;;;;;;;;5048240;28;20131;-78
2022/07/03 06:15:35;;;;;;;2.80;2.60;;;;;;;;;;5027895;28;20547;-78
2022/07/03 06:18:02;;;;;;;3.28;2.70;;;;;;;;;;5029558;28;20068;-78
2022/07/03 06:20:30;;;;;;;2.70;2.60;;;;;;;;;;5031321;28;20120;-80
2022/07/03 06:22:57;;;;;;;4.05;2.80;;;;;;;;;;5047459;28;20043;-79
2022/07/03 06:25:25;;;;;;;2.70;2.60;;;;;;;;;;5028223;28;20071;-79
2022/07/03 06:27:52;;;;;;;2.60;2.45;;;;;;;;;;5050262;28;20063;-81
2022/07/03 06:30:20;;;;;;;3.15;2.85;;;;;;;;;;5053740;28;20113;-78
2022/07/03 06:32:47;;;;;;;3.00;2.70;;;;;;;;;;5054352;28;20127;-79
2022/07/03 06:35:14;;;;;;;2.67;2.47;;;;;;;;;;5046985;28;20091;-80
2022/07/03 06:37:42;;;;;;;2.90;2.30;;;;;;;;;;5026739;28;20071;-79
2022/07/03 06:40:10;;;;;;;2.78;2.35;;;;;;;;;;5019075;28;20046;-78
2022/07/03 06:42:37;;;;;;;4.00;2.20;;;;;;;;;;5033759;28;20086;-79
2022/07/03 06:45:05;;;;;;;2.53;2.25;;;;;;;;;;5049231;28;20045;-78
2022/07/03 06:47:36;;;;;;;2.40;2.30;;;;;;;;;;5047403;28;20143;-79
2022/07/03 06:50:04;;;;;;;2.63;2.42;;;;;;;;;;5031124;28;20592;-79
2022/07/03 06:52:31;;;;;;;2.30;2.05;;;;;;;;;;5047903;28;20148;-81
2022/07/03 06:54:59;;;;;;;3.47;2.30;;;;;;;;;;5047269;28;20370;-79
2022/07/03 06:57:26;;;;;;;2.88;2.47;;;;;;;;;;5024457;28;20047;-79
2022/07/03 06:59:54;;;;;;;2.78;2.03;;;;;;;;;;5036110;28;20135;-81
2022/07/03 07:02:21;;;;;;;3.05;2.15;;;;;;;;;;5043647;28;20525;-79
2022/07/03 07:04:49;;;;;;;3.95;2.28;;;;;;;;;;5049557;28;20056;-80
2022/07/03 07:07:16;;;;;;;2.13;2.03;;;;;;;;;;5044496;28;20135;-80
2022/07/03 07:09:44;;;;;;;4.40;2.42;;;;;;;;;;5029829;28;20144;-80
2022/07/03 07:12:12;;;;;;;2.25;2.00;;;;;;;;;;5047581;28;20041;-79
2022/07/03 07:14:39;;;;;;;2.33;2.13;;;;;;;;;;5047893;28;20052;-79
2022/07/03 07:17:07;;;;;;;3.03;2.25;;;;;;;;;;5029825;28;20049;-79
2022/07/03 07:19:34;;;;;;;4.25;2.20;;;;;;;;;;5039559;28;20325;-80
2022/07/03 07:22:02;;;;;;;2.45;2.35;;;;;;;;;;5051719;28;20161;-79
2022/07/03 07:24:29;;;;;;;2.72;2.38;;;;;;;;;;5043339;28;20087;-78
2022/07/03 07:26:57;;;;;;;4.70;2.08;;;;;;;;;;5004192;28;20083;-78
2022/07/03 07:29:24;;;;;;;2.50;2.30;;;;;;;;;;4996113;28;20064;-79
2022/07/03 07:31:51;;;;;;;2.22;2.03;;;;;;;;;;5042390;28;20116;-80
2022/07/03 07:34:19;;;;;;;3.92;2.10;;;;;;;;;;5046823;28;20049;-78
2022/07/03 07:36:46;;;;;;;2.17;2.08;;;;;;;;;;5040836;28;20135;-80
2022/07/03 07:39:14;;;;;;;2.58;2.38;;;;;;;;;;5080035;22;20451;-79
2022/07/03 07:41:41;;;;;;;2.30;2.10;;;;;;;;;;5042240;28;20045;-78
2022/07/03 07:44:09;;;;;;;2.42;2.20;;;;;;;;;;5041665;28;20100;-79
2022/07/03 07:46:36;;;;;;;2.38;2.20;;;;;;;;;;5047110;28;20065;-79
2022/07/03 07:49:04;;;;;;;2.60;2.20;;;;;;;;;;5038204;28;20046;-79
2022/07/03 07:51:31;;;;;;;2.30;2.20;;;;;;;;;;5034716;28;20416;-79
2022/07/03 07:53:59;;;;;;;2.63;2.20;;;;;;;;;;5028536;28;20052;-78
2022/07/03 07:56:26;;;;;;;2.50;2.30;;;;;;;;;;5028707;28;20053;-79
2022/07/03 07:58:54;;;;;;;2.22;2.03;;;;;;;;;;5029732;28;20099;-78
2022/07/03 08:06:56;;;;;;;2.08;1.98;;;;;;;;;;5012923;28;20579;-80
2022/07/03 08:09:25;;;;;;;2.40;2.22;;;;;;;;;;4973594;28;20045;-78
2022/07/03 08:11:53;;;;;;;2.10;2.00;;;;;;;;;;5011004;28;20054;-78
2022/07/03 08:14:21;;;;;;;2.05;1.92;;;;;;;;;;5027674;28;20409;-78
2022/07/03 08:16:49;;;;;;;2.58;2.40;;;;;;;;;;5018056;28;20122;-78
2022/07/03 08:19:17;;;;;;;2.28;2.17;;;;;;;;;;5014610;28;20136;-80
2022/07/03 08:21:47;;;;;;;2.15;2.00;;;;;;;;;;5010833;28;20517;-82
2022/07/03 08:24:16;;;;;;;2.20;1.98;;;;;;;;;;5008327;28;20493;-79
2022/07/03 08:26:43;;;;;;;2.10;2.00;;;;;;;;;;5025613;28;20042;-79
2022/07/03 08:29:11;;;;;;;3.88;2.20;;;;;;;;;;5029784;28;20044;-79
2022/07/03 08:31:39;;;;;;;2.28;2.17;;;;;;;;;;5015605;28;20073;-79
2022/07/03 08:34:06;;;;;;;2.65;2.17;;;;;;;;;;5025456;28;20077;-80
2022/07/03 08:36:34;;;;;;;2.92;2.20;;;;;;;;;;5011690;28;20503;-78
2022/07/03 08:39:01;;;;;;;3.65;2.30;;;;;;;;;;5026863;28;20041;-80
2022/07/03 08:41:29;;;;;;;3.35;3.15;;;;;;;;;;5011144;28;20064;-78
2022/07/03 08:43:57;;;;;;;2.20;2.10;;;;;;;;;;5025416;28;20033;-80
2022/07/03 08:46:35;;;;;;;3.28;1.98;;;;;;;;;;5019495;28;20033;-79
2022/07/03 08:49:02;;;;;;;6.35;1.83;;;;;;;;;;4996756;28;20110;-79
2022/07/03 08:51:31;;;;;;;2.17;1.90;;;;;;;;;;5007154;28;20117;-79
2022/07/03 08:54:03;;;;;;;2.25;2.10;;;;;;;;;;5032505;28;20515;-80
2022/07/03 08:56:31;;;;;;;3.60;1.83;;;;;;;;;;5005468;28;20080;-80
2022/07/03 08:59:00;;;;;;;2.25;2.05;;;;;;;;;;5023043;28;20046;-79
2022/07/03 09:01:27;;;;;;;2.00;1.90;;;;;;;;;;5023069;28;20132;-78
2022/07/03 09:03:55;;;;;;;1.95;1.83;;;;;;;;;;5021793;28;20103;-80
2022/07/03 09:06:22;;;;;;;3.38;1.85;;;;;;;;;;5006675;28;20242;-79
2022/07/03 09:08:50;;;;;;;1.88;1.80;;;;;;;;;;5005789;28;20044;-78
2022/07/03 09:11:18;;;;;;;4.05;1.95;;;;;;;;;;5019088;28;20091;-79
2022/07/03 09:13:45;;;;;;;2.20;2.10;;;;;;;;;;5021712;28;20049;-78
2022/07/03 09:16:17;;;;;;;2.45;2.10;;;;;;;;;;5008297;28;20401;-81
2022/07/03 09:18:47;;;;;;;1.90;1.80;;;;;;;;;;5008050;28;20159;-78
2022/07/03 09:21:20;;;;;;;1.85;1.75;;;;;;;;;;5015203;28;20158;-80
2022/07/03 09:24:06;;;;;;;1.88;1.75;;;;;;;;;;5026705;28;20045;-77
2022/07/03 09:26:35;;;;;;;2.72;1.73;;;;;;;;;;5010222;28;20050;-78
2022/07/03 09:29:09;;;;;;;1.67;1.58;;;;;;;;;;5012379;28;20184;-77
2022/07/03 09:31:36;;;;;;;2.55;2.03;;;;;;;;;;5020714;28;20091;-77
2022/07/03 09:34:07;;;;;;;2.08;1.70;;;;;;;;;;5010857;28;20053;-77
2022/07/03 09:36:50;;;;;;;1.80;1.70;;;;;;;;;;5010606;28;20053;-78
2022/07/03 09:39:19;;;;;;;1.63;1.52;;;;;;;;;;5006449;28;20393;-78
2022/07/03 09:42:01;;;;;;;2.00;1.90;;;;;;;;;;5005073;28;20053;-79
2022/07/03 09:44:33;;;;;;;1.55;1.45;;;;;;;;;;5029118;28;20133;-79
2022/07/03 09:47:18;;;;;;;1.67;1.58;;;;;;;;;;5009721;28;20068;-78
2022/07/03 09:49:46;;;;;;;1.50;1.50;;;;;;;;;;5018347;28;20049;-78
2022/07/03 09:52:32;;;;;;;4.70;1.48;;;;;;;;;;5016377;28;20065;-79
2022/07/03 09:55:06;;;;;;;1.92;1.35;;;;;;;;;;5005734;28;20041;-77
2022/07/03 09:57:33;;;;;;;2.05;1.50;;;;;;;;;;5010029;28;20164;-78
2022/07/03 10:00:12;;;;;;;3.25;2.95;;;;;;;;;;5007398;28;20045;-76
2022/07/03 10:03:12;;;;;;;2.85;1.30;;;;;;;;;;5010484;28;20052;-77
2022/07/03 10:05:41;;;;;;;2.97;1.50;;;;;;;;;;5003634;28;20045;-76
2022/07/03 10:08:12;;;;;;;2.75;1.60;;;;;;;;;;5018774;28;20128;-76
2022/07/03 10:10:40;;;;;;;;;;;;;;;;;;5008764;28;20049;-78
2022/07/03 10:13:07;;;;;;;;;;;;;;;;;;5021089;28;20030;-78
2022/07/03 10:15:37;;;;;;;;;;;;;;;;;;5020417;28;19979;-78
2022/07/03 10:18:05;;;;;;;;;;;;;;;;;;5026725;28;19929;-78
2022/07/03 10:20:32;;;;;;;;;;;;;;;;;;5020333;28;20008;-78
2022/07/03 10:23:00;;;;;;;;;;;;;;;;;;5003384;28;19921;-78
2022/07/03 10:25:27;;;;;;;;;;;;;;;;;;5022637;28;19929;-78
2022/07/03 10:27:54;;;;;;;;;;;;;;;;;;5026462;28;20020;-78
2022/07/03 10:30:22;;;;;;;;;;;;;;;;;;5019724;28;19979;-79
2022/07/03 10:32:49;;;;;;;;;;;;;;;;;;5024588;28;19975;-78
2022/07/03 10:35:16;;;;;;;;;;;;;;;;;;5029076;28;20333;-78
2022/07/03 10:37:44;;;;;;;;;;;;;;;;;;5013392;28;20021;-78
2022/07/03 10:45:45;;;;;;;;;;;;;;;;;;5000232;28;19921;-77
2022/07/03 10:48:12;;;;;;;;;;;;;;;;;;5006478;28;19932;-77
2022/07/03 10:50:39;;;;;;;;;;;;;;;;;;5013975;28;20303;-78
2022/07/03 10:53:06;;;;;;;;;;;;;;;;;;5025051;28;19924;-77
2022/07/03 10:55:36;;;;;;;;;;;;;;;;;;5030061;28;19929;-78
2022/07/03 10:58:04;;;;;;;;;;;;;;;;;;5026330;28;19945;-77
2022/07/03 11:00:35;;;;;;;;;;;;;;;;;;5000358;28;19921;-77
2022/07/03 11:03:02;;;;;;;;;;;;;;;;;;4988961;28;19968;-77
2022/07/03 11:05:30;;;;;;;;;;;;;;;;;;5011403;28;19952;-77
2022/07/03 11:07:58;;;;;;;;;;;;;;;;;;5007414;28;19933;-78
2022/07/03 11:10:25;;;;;;;;;;;;;;;;;;5017953;28;19925;-78
2022/07/03 11:12:52;;;;;;;;;;;;;;;;;;5029380;28;20401;-77
2022/07/03 11:15:20;;;;;;;;;;;;;;;;;;5027563;28;19936;-77
2022/07/03 11:17:47;;;;;;;;;;;;;;;;;;5026754;28;19936;-78
2022/07/03 11:20:23;;;;;;;;;;;;;;;;;;5039027;28;20020;-78
2022/07/03 11:22:51;;;;;;;;;;;;;;;;;;5026490;28;19965;-77
2022/07/03 11:25:18;;;;;;;;;;;;;;;;;;5033779;28;19960;-78
2022/07/03 11:27:47;;;;;;;;;;;;;;;;;;5026413;28;20509;-79
2022/07/03 11:30:15;;;;;;;;;;;;;;;;;;5020600;28;19929;-80
2022/07/03 11:32:42;;;;;;;;;;;;;;;;;;5025647;28;19920;-80
2022/07/03 11:35:09;;;;;;;;;;;;;;;;;;5032187;28;19932;-79
2022/07/03 11:37:37;;;;;;;;;;;;;;;;;;5030202;28;19964;-78
2022/07/03 11:40:04;;;;;;;;;;;;;;;;;;5025609;28;19951;-79
2022/07/03 11:42:31;;;;;;;;;;;;;;;;;;5029249;28;19924;-80
2022/07/03 11:44:59;;;;;;;;;;;;;;;;;;5004458;28;19996;-80
2022/07/03 11:47:26;;;;;;;;;;;;;;;;;;5024193;28;20384;-80
2022/07/03 11:49:53;;;;;;;;;;;;;;;;;;5024610;28;19929;-79
2022/07/03 11:52:21;;;;;;;;;;;;;;;;;;5008120;28;19931;-79
2022/07/03 11:54:48;;;;;;;;;;;;;;;;;;5027811;28;20381;-79
2022/07/03 11:57:15;;;;;;;;;;;;;;;;;;5028716;28;19925;-78
2022/07/03 11:59:58;;;;;;;;;;;;;;;;;;5001276;28;19924;-78
2022/07/03 12:02:26;;;;;;;;;;;;;;;;;;5028133;28;19925;-80
2022/07/03 12:04:53;;;;;;;;;;;;;;;;;;5030096;28;19921;-78
2022/07/03 12:07:21;;;;;;;;;;;;;;;;;;5029588;28;19931;-80
2022/07/03 12:09:48;;;;;;;;;;;;;;;;;;5010314;28;20024;-79
2022/07/03 12:12:15;;;;;;;;;;;;;;;;;;5013568;28;19935;-79
2022/07/03 12:14:42;;;;;;;;;;;;;;;;;;5026868;28;19971;-81
2022/07/03 12:17:10;;;;;;;;;;;;;;;;;;5028918;28;19932;-79
2022/07/03 12:19:38;;;;;;;;;;;;;;;;;;5008803;28;19929;-80
2022/07/03 12:22:05;;;;;;;;;;;;;;;;;;4984533;28;19925;-79
2022/07/03 12:24:34;;;;;;;;;;;;;;;;;;5020472;28;19927;-79
2022/07/03 12:27:05;;;;;;;;;;;;;;;;;;5029264;28;20600;-80
2022/07/03 12:29:33;;;;;;;;;;;;;;;;;;5026867;28;20023;-79
2022/07/03 12:32:00;;;;;;;;;;;;;;;;;;5030122;28;20396;-82
2022/07/03 12:34:28;;;;;;;;;;;;;;;;;;5010643;28;19929;-80
2022/07/03 12:36:55;;;;;;;;;;;;;;;;;;5019610;28;20023;-80
2022/07/03 12:39:22;;;;;;;;;;;;;;;;;;5021827;28;19952;-83
2022/07/03 12:41:50;;;;;;;;;;;;;;;;;;4994484;28;19933;-80
2022/07/03 12:44:20;;;;;;;;;;;;;;;;;;4976567;28;20028;-81
2022/07/03 12:46:48;;;;;;;;;;;;;;;;;;5019932;28;19979;-81
2022/07/03 12:49:15;;;;;;;;;;;;;;;;;;5010734;28;19956;-80
2022/07/03 12:51:42;;;;;;;;;;;;;;;;;;5032141;28;19924;-82
2022/07/03 12:54:10;;;;;;;;;;;;;;;;;;5014804;28;19989;-84
2022/07/03 12:56:37;;;;;;;;;;;;;;;;;;5034091;28;20263;-86
2022/07/03 12:59:17;;;;;;;;;;;;;;;;;;5037976;28;19948;-80
2022/07/03 13:01:44;;;;;;;;;;;;;;;;;;5026231;28;20312;-80
2022/07/03 13:04:15;;;;;;;;;;;;;;;;;;5035355;28;19925;-80
2022/07/03 13:06:42;;;;;;;;;;;;;;;;;;4996576;28;20297;-81
2022/07/03 13:09:10;;;;;;;;;;;;;;;;;;5010978;28;20307;-80
2022/07/03 13:11:37;;;;;;;;;;;;;;;;;;5021877;28;20082;-79
2022/07/03 13:14:05;;;;;;;;;;;;;;;;;;5000273;28;19960;-79
2022/07/03 13:16:32;;;;;;;;;;;;;;;;;;5008310;28;20402;-78
2022/07/03 13:18:59;;;;;;;;;;;;;;;;;;5018884;28;20012;-79
2022/07/03 13:21:27;;;;;;;;;;;;;;;;;;5006780;28;20361;-78
2022/07/03 13:23:57;;;;;;;;;;;;;;;;;;5006993;28;20389;-79
2022/07/03 13:26:25;;;;;;;;;;;;;;;;;;5023466;28;19925;-79
2022/07/03 13:28:52;;;;;;;;;;;;;;;;;;5023593;28;19925;-82
2022/07/03 13:31:19;;;;;;;;;;;;;;;;;;5026021;28;19998;-80
2022/07/03 13:33:47;;;;;;;;;;;;;;;;;;5010121;28;19929;-80
2022/07/03 13:36:16;;;;;;;;;;;;;;;;;;5025589;28;19931;-80
2022/07/03 13:38:44;;;;;;;;;;;;;;;;;;5026878;28;19956;-80
2022/07/03 13:41:11;;;;;;;;;;;;;;;;;;5012961;28;20263;-83
2022/07/03 13:43:38;;;;;;;;;;;;;;;;;;4998636;28;19960;-80
2022/07/03 13:46:05;;;;;;;;;;;;;;;;;;5031340;28;20028;-83
2022/07/03 13:48:33;;;;;;;;;;;;;;;;;;5029166;28;19940;-80
2022/07/03 13:51:00;;;;;;;;;;;;;;;;;;5025509;28;19921;-80
2022/07/03 13:53:27;;;;;;;;;;;;;;;;;;5021337;28;19925;-82
2022/07/03 13:55:55;;;;;;;;;;;;;;;;;;5003542;28;19925;-81
2022/07/03 13:58:23;;;;;;;;;;;;;;;;;;5005380;28;20324;-78
2022/07/03 14:00:50;;;;;;;;;;;;;;;;;;5016846;28;19951;-79
2022/07/03 14:03:17;;;;;;;;;;;;;;;;;;5011438;28;19928;-78
2022/07/03 14:05:47;;;;;;;;;;;;;;;;;;5008492;28;19925;-78
2022/07/03 14:08:14;;;;;;;;;;;;;;;;;;4990507;28;20438;-78
2022/07/03 14:10:41;;;;;;;;;;;;;;;;;;5025568;28;19933;-79
2022/07/03 14:13:11;;;;;;;;;;;;;;;;;;5025879;28;19932;-79
2022/07/03 14:15:39;;;;;;;;;;;;;;;;;;5024938;28;19933;-81
2022/07/03 14:18:06;;;;;;;;;;;;;;;;;;5022142;28;19925;-79
2022/07/03 14:20:33;;;;;;;;;;;;;;;;;;5020296;28;19921;-79
2022/07/03 14:23:00;;;;;;;;;;;;;;;;;;5003729;28;19929;-78
2022/07/03 14:25:28;;;;;;;;;;;;;;;;;;5019308;28;19924;-78
2022/07/03 14:33:27;;;;;;;;;;;;;;;;;;5019099;28;20002;-81
2022/07/03 14:35:55;;;;;;;;;;;;;;;;;;5004202;28;19935;-80
2022/07/03 14:38:29;;;;;;;;;;;;;;;;;;5015341;28;19956;-78
2022/07/03 14:40:56;;;;;;;;;;;;;;;;;;4995708;28;19925;-80
2022/07/03 14:43:24;;;;;;;;;;;;;;;;;;5023136;28;21312;-79
2022/07/03 14:45:51;;;;;;;;;;;;;;;;;;4999153;28;19935;-79
2022/07/03 14:48:19;;;;;;;;;;;;;;;;;;5027093;28;19929;-79
2022/07/03 14:50:46;;;;;;;;;;;;;;;;;;5007138;28;20036;-79
2022/07/03 14:53:17;;;;;;;;;;;;;;;;;;5033640;28;20035;-82
2022/07/03 14:55:44;;;;;;;;;;;;;;;;;;5004053;28;20004;-80
2022/07/03 14:58:11;;;;;;;;;;;;;;;;;;5017990;28;20347;-80
2022/07/03 15:00:38;;;;;;;;;;;;;;;;;;5017101;28;20417;-79
2022/07/03 15:03:06;;;;;;;;;;;;;;;;;;5008253;28;19933;-81
2022/07/03 15:05:33;;;;;;;;;;;;;;;;;;5021173;28;20421;-81
2022/07/03 15:08:00;;;;;;;;;;;;;;;;;;5014671;28;19929;-80
2022/07/03 15:10:28;;;;;;;;;;;;;;;;;;5020124;28;20036;-81
2022/07/03 15:12:55;;;;;;;;;;;;;;;;;;5017215;28;19939;-81
2022/07/03 15:15:22;;;;;;;;;;;;;;;;;;5016854;28;20646;-81
2022/07/03 15:17:49;;;;;;;;;;;;;;;;;;5016656;28;19936;-79
2022/07/03 15:20:17;;;;;;;;;;;;;;;;;;5018577;28;19968;-80
2022/07/03 15:22:44;;;;;;;;;;;;;;;;;;5000585;28;19959;-81
2022/07/03 15:25:11;;;;;;;;;;;;;;;;;;5011888;28;19929;-78
2022/07/03 15:27:39;;;;;;;;;;;;;;;;;;4999447;28;19964;-79
2022/07/03 15:30:06;;;;;;;;;;;;;;;;;;5015629;28;19932;-79
2022/07/03 15:32:33;;;;;;;;;;;;;;;;;;5019509;28;20000;-79
2022/07/03 15:35:00;;;;;;;;;;;;;;;;;;5013281;28;19925;-80
2022/07/03 15:37:28;;;;;;;;;;;;;;;;;;5001319;28;19931;-79
2022/07/03 15:39:58;;;;;;;;;;;;;;;;;;5017966;28;20389;-79
2022/07/03 15:46:20;;;;;;;;;;;;;;;;;;4996460;28;20469;-79
2022/07/03 15:49:08;;;;;;;;;;;;;;;;;;5012019;28;19925;-81
2022/07/03 15:54:53;;;;;;;;;;;;;;;;;;;;;
2022/07/03 15:58:05;;;;;;;;;;;;;;;;;;5051708;22;19931;-80
2022/07/03 16:04:23;;;;;;;;;;;;;;;;;;5034685;28;19932;-81
2022/07/03 16:06:51;;;;;;;;;;;;;;;;;;5028882;28;19925;-80
2022/07/03 16:09:32;;;;;;;;;;;;;;;;;;5020270;28;20703;-82
2022/07/03 16:12:00;;;;;;;;;;;;;;;;;;5026714;28;19932;-81